Burrinjuck Dam, New South Wales

6:42 AM EST on July 29, 2014 (GMT +1000)
Burrinjuck Dam (INEWSOUT283) Elev 1293 ft | 35.00 °S, 148.60 °E | Change Station

Current weather conditions updated 13 seconds ago

Scattered Clouds
Scattered Clouds
47.8 °F
Feels Like 48 °F
N
0.0
Wind Variable Wind from North
Gusts 0.0 mph

Today is forecast to be Warmer than yesterday. Chance of late night showers tonight.

Today
High -- | Low -- °F
--% Chance of Precip.
Yesterday
High -- | Low -- °F
Precip. -- in
7:02 AM 5:21 PM
Waxing Crescent, 3% visible
Pressure 29.98 in
Visibility 6.2 miles
Clouds Few 2500 ft
Scattered Clouds 24000 ft
Windchill 48 °F
Dew Point 43 °F
Humidity 84%
Rainfall 0.00 in
Snow Depth Not available.
UV 0 out of 12
Pollen Not available.
Air Quality Not available.
Flu Activity Not available.
METAR YSCB 282030Z 33014KT 9999 FEW025 SCT240 08/01 Q1015

More Conditions Fewer Conditions

Pressure 29.98 in
Visibility 6.2 miles
Clouds Few 2500 ft
Scattered Clouds 24000 ft
Windchill 48 °F
Dew Point 43 °F
Humidity 84%
Rainfall 0.00 in
Snow Depth Not available.
UV 0 out of 12
Pollen Not available.
Air Quality Not available.
Flu Activity Not available.
METAR YSCB 282030Z 33014KT 9999 FEW025 SCT240 08/01 Q1015

More Conditions Fewer Conditions

10-Day Weather Forecast

Almanac

Astronomy

Jul. 29, 2014 Rise Set
Actual Time 7:02 AM EST 5:21 PM EST
Civil Twilight 6:36 AM EST 5:48 PM EST
Nautical Twilight 6:05 AM EST 6:19 PM EST
Astronomical Twilight 5:35 AM EST 6:49 PM EST
Moon 7:56 AM EST (7/29) 7:31 PM EST (7/29)
Length of Visible Light 11h 12m
Length of Day
10h 18m
Tomorrow will be 1m 30s longer.
Waxing Crescent, 3% of the Moon is Illuminated
Jul 28
Waxing Crescent
Aug 3
First Quarter
Aug 10
Full
Aug 17
Last Quarter
Aug 25
New

Yesterday's Extremes

Country Highs Country Lows

Community

WunderPhotos

Upload Photos

1,738,488 photos uploaded!

Nearby

Snow Depth

Not available.

Earthquake Activity

City Distance Mag. Time & Date
No recent earthquake activity has been reported nearby.
Minimum magnitude displayed is 2.5.

Coastal Water Temperatures

Place Temperature
No Stations Reporting

Nearby Weather Stations

Station Location Temp. Windchill Dew Point Humidity Wind Precip. Elev Updated Type
Burrinjuck Dam, Burrinjuck 47.8 °F 48 °F 43 °F 84% North  at  0.0 mph 0.00 in / hr 1293 ft 6:42 AM EST Rapid Fire
Urban environment, Yass 44.8 °F 42 °F 33 °F 62% WNW  at  5.4 mph 0.00 in / hr 1709 ft 6:42 AM EST Rapid Fire
Merryville, Australia, Murrumbateman 40.6 °F 41 °F 32 °F 72% South  at  2.7 mph 0.00 in / hr 1916 ft 6:41 AM EST Rapid Fire

Show More Stations Show Fewer Stations